sensor_id;sensor_type;location;lat;lon;timestamp;P1;durP1;ratioP1;P2;durP2;ratioP2
4527;SDS011;62320;51.520;6.818;2022-07-29T00:04:16;2.53;;;1.20;;
4527;SDS011;62320;51.520;6.818;2022-07-29T00:09:18;3.95;;;1.20;;
4527;SDS011;62320;51.520;6.818;2022-07-29T00:14:20;2.03;;;1.00;;
4527;SDS011;62320;51.520;6.818;2022-07-29T00:19:21;1.98;;;1.17;;
4527;SDS011;62320;51.520;6.818;2022-07-29T00:24:23;2.60;;;0.90;;
4527;SDS011;62320;51.520;6.818;2022-07-29T00:29:24;3.40;;;1.40;;
4527;SDS011;62320;51.520;6.818;2022-07-29T00:34:35;1.87;;;0.90;;
4527;SDS011;62320;51.520;6.818;2022-07-29T00:39:54;2.97;;;1.40;;
4527;SDS011;62320;51.520;6.818;2022-07-29T00:44:56;3.85;;;1.15;;
4527;SDS011;62320;51.520;6.818;2022-07-29T00:49:57;3.00;;;1.27;;
4527;SDS011;62320;51.520;6.818;2022-07-29T00:54:59;4.38;;;1.20;;
4527;SDS011;62320;51.520;6.818;2022-07-29T01:00:09;2.92;;;1.35;;
4527;SDS011;62320;51.520;6.818;2022-07-29T01:05:19;5.65;;;1.50;;
4527;SDS011;62320;51.520;6.818;2022-07-29T01:10:22;2.45;;;1.10;;
4527;SDS011;62320;51.520;6.818;2022-07-29T01:15:26;3.92;;;1.40;;
4527;SDS011;62320;51.520;6.818;2022-07-29T01:30:58;4.45;;;1.55;;
4527;SDS011;62320;51.520;6.818;2022-07-29T01:36:07;7.20;;;1.35;;
4527;SDS011;62320;51.520;6.818;2022-07-29T01:41:15;6.03;;;1.30;;
4527;SDS011;62320;51.520;6.818;2022-07-29T01:46:26;1.38;;;1.02;;
4527;SDS011;62320;51.520;6.818;2022-07-29T01:51:35;5.07;;;1.30;;
4527;SDS011;62320;51.520;6.818;2022-07-29T01:56:42;4.35;;;1.42;;
4527;SDS011;62320;51.520;6.818;2022-07-29T02:01:46;5.00;;;1.30;;
4527;SDS011;62320;51.520;6.818;2022-07-29T02:06:50;1.88;;;1.17;;
4527;SDS011;62320;51.520;6.818;2022-07-29T02:11:56;2.70;;;1.30;;
4527;SDS011;62320;51.520;6.818;2022-07-29T02:17:00;2.97;;;1.50;;
4527;SDS011;62320;51.520;6.818;2022-07-29T02:22:03;6.13;;;1.20;;
4527;SDS011;62320;51.520;6.818;2022-07-29T02:27:07;5.80;;;1.40;;
4527;SDS011;62320;51.520;6.818;2022-07-29T02:32:10;3.45;;;1.30;;
4527;SDS011;62320;51.520;6.818;2022-07-29T02:37:14;3.55;;;1.20;;
4527;SDS011;62320;51.520;6.818;2022-07-29T02:42:17;4.07;;;1.40;;
4527;SDS011;62320;51.520;6.818;2022-07-29T02:47:36;3.40;;;1.20;;
4527;SDS011;62320;51.520;6.818;2022-07-29T02:52:47;3.33;;;1.23;;
4527;SDS011;62320;51.520;6.818;2022-07-29T02:58:01;5.15;;;1.23;;
4527;SDS011;62320;51.520;6.818;2022-07-29T03:03:15;5.50;;;1.50;;
4527;SDS011;62320;51.520;6.818;2022-07-29T03:08:18;2.65;;;1.38;;
4527;SDS011;62320;51.520;6.818;2022-07-29T03:13:20;5.90;;;1.40;;
4527;SDS011;62320;51.520;6.818;2022-07-29T03:18:22;2.60;;;1.30;;
4527;SDS011;62320;51.520;6.818;2022-07-29T03:23:24;3.25;;;1.25;;
4527;SDS011;62320;51.520;6.818;2022-07-29T03:28:27;3.78;;;1.60;;
4527;SDS011;62320;51.520;6.818;2022-07-29T03:33:28;9.32;;;1.40;;
4527;SDS011;62320;51.520;6.818;2022-07-29T03:38:31;4.78;;;1.27;;
4527;SDS011;62320;51.520;6.818;2022-07-29T03:43:37;3.85;;;1.60;;
4527;SDS011;62320;51.520;6.818;2022-07-29T03:48:50;5.05;;;1.50;;
4527;SDS011;62320;51.520;6.818;2022-07-29T03:53:57;3.38;;;1.20;;
4527;SDS011;62320;51.520;6.818;2022-07-29T03:58:59;3.97;;;1.40;;
4527;SDS011;62320;51.520;6.818;2022-07-29T04:04:03;3.22;;;1.35;;
4527;SDS011;62320;51.520;6.818;2022-07-29T04:09:06;4.63;;;1.70;;
4527;SDS011;62320;51.520;6.818;2022-07-29T04:14:10;3.90;;;1.70;;
4527;SDS011;62320;51.520;6.818;2022-07-29T04:19:11;5.05;;;1.60;;
4527;SDS011;62320;51.520;6.818;2022-07-29T04:24:13;2.83;;;1.60;;
4527;SDS011;62320;51.520;6.818;2022-07-29T04:29:15;5.43;;;1.75;;
4527;SDS011;62320;51.520;6.818;2022-07-29T04:34:16;7.50;;;2.42;;
4527;SDS011;62320;51.520;6.818;2022-07-29T04:39:19;11.18;;;2.42;;
4527;SDS011;62320;51.520;6.818;2022-07-29T04:44:23;7.30;;;2.58;;
4527;SDS011;62320;51.520;6.818;2022-07-29T04:49:28;7.80;;;2.45;;
4527;SDS011;62320;51.520;6.818;2022-07-29T04:54:30;4.05;;;2.25;;
4527;SDS011;62320;51.520;6.818;2022-07-29T04:59:31;6.60;;;2.28;;
4527;SDS011;62320;51.520;6.818;2022-07-29T05:04:33;8.07;;;2.65;;
4527;SDS011;62320;51.520;6.818;2022-07-29T05:09:34;4.93;;;2.17;;
4527;SDS011;62320;51.520;6.818;2022-07-29T05:14:36;8.60;;;2.75;;
4527;SDS011;62320;51.520;6.818;2022-07-29T05:19:37;3.42;;;1.80;;
4527;SDS011;62320;51.520;6.818;2022-07-29T05:24:39;4.45;;;2.40;;
4527;SDS011;62320;51.520;6.818;2022-07-29T05:29:41;4.97;;;2.17;;
4527;SDS011;62320;51.520;6.818;2022-07-29T05:34:46;4.18;;;2.42;;
4527;SDS011;62320;51.520;6.818;2022-07-29T05:39:51;4.13;;;2.50;;
4527;SDS011;62320;51.520;6.818;2022-07-29T05:44:59;4.90;;;2.28;;
4527;SDS011;62320;51.520;6.818;2022-07-29T05:50:01;5.72;;;3.20;;
4527;SDS011;62320;51.520;6.818;2022-07-29T05:55:02;5.57;;;2.60;;
4527;SDS011;62320;51.520;6.818;2022-07-29T06:00:06;4.03;;;2.28;;
4527;SDS011;62320;51.520;6.818;2022-07-29T06:05:08;10.80;;;2.78;;
4527;SDS011;62320;51.520;6.818;2022-07-29T06:10:16;10.27;;;2.72;;
4527;SDS011;62320;51.520;6.818;2022-07-29T06:15:17;5.03;;;2.70;;
4527;SDS011;62320;51.520;6.818;2022-07-29T06:20:19;5.65;;;2.53;;
4527;SDS011;62320;51.520;6.818;2022-07-29T06:25:27;6.72;;;3.03;;
4527;SDS011;62320;51.520;6.818;2022-07-29T06:30:33;4.07;;;2.80;;
4527;SDS011;62320;51.520;6.818;2022-07-29T06:35:34;3.92;;;2.67;;
4527;SDS011;62320;51.520;6.818;2022-07-29T06:40:44;5.70;;;3.05;;
4527;SDS011;62320;51.520;6.818;2022-07-29T06:46:08;5.55;;;2.90;;
4527;SDS011;62320;51.520;6.818;2022-07-29T06:51:11;4.28;;;2.97;;
4527;SDS011;62320;51.520;6.818;2022-07-29T06:56:12;6.75;;;4.50;;
4527;SDS011;62320;51.520;6.818;2022-07-29T07:01:15;7.95;;;4.72;;
4527;SDS011;62320;51.520;6.818;2022-07-29T07:06:18;6.32;;;3.47;;
4527;SDS011;62320;51.520;6.818;2022-07-29T07:11:19;7.55;;;3.40;;
4527;SDS011;62320;51.520;6.818;2022-07-29T07:16:21;6.07;;;3.05;;
4527;SDS011;62320;51.520;6.818;2022-07-29T07:21:22;5.00;;;2.75;;
4527;SDS011;62320;51.520;6.818;2022-07-29T07:26:24;6.82;;;3.88;;
4527;SDS011;62320;51.520;6.818;2022-07-29T07:31:26;5.72;;;3.20;;
4527;SDS011;62320;51.520;6.818;2022-07-29T07:36:28;3.85;;;3.00;;
4527;SDS011;62320;51.520;6.818;2022-07-29T07:41:29;7.05;;;3.60;;
4527;SDS011;62320;51.520;6.818;2022-07-29T07:46:32;7.97;;;3.30;;
4527;SDS011;62320;51.520;6.818;2022-07-29T07:51:34;7.22;;;3.50;;
4527;SDS011;62320;51.520;6.818;2022-07-29T07:56:35;7.55;;;3.42;;
4527;SDS011;62320;51.520;6.818;2022-07-29T08:01:37;6.20;;;3.58;;
4527;SDS011;62320;51.520;6.818;2022-07-29T08:06:56;5.63;;;3.35;;
4527;SDS011;62320;51.520;6.818;2022-07-29T08:11:58;7.80;;;3.20;;
4527;SDS011;62320;51.520;6.818;2022-07-29T08:17:00;6.50;;;3.40;;
4527;SDS011;62320;51.520;6.818;2022-07-29T08:22:02;9.23;;;3.80;;
4527;SDS011;62320;51.520;6.818;2022-07-29T08:27:03;5.50;;;3.55;;
4527;SDS011;62320;51.520;6.818;2022-07-29T08:32:24;5.18;;;3.70;;
4527;SDS011;62320;51.520;6.818;2022-07-29T08:37:46;7.65;;;3.75;;
4527;SDS011;62320;51.520;6.818;2022-07-29T08:42:48;7.18;;;3.97;;
4527;SDS011;62320;51.520;6.818;2022-07-29T08:47:50;6.60;;;4.40;;
4527;SDS011;62320;51.520;6.818;2022-07-29T08:52:53;10.10;;;4.65;;
4527;SDS011;62320;51.520;6.818;2022-07-29T08:58:00;9.10;;;4.57;;
4527;SDS011;62320;51.520;6.818;2022-07-29T09:03:02;8.82;;;4.35;;
4527;SDS011;62320;51.520;6.818;2022-07-29T09:08:06;6.88;;;4.03;;
4527;SDS011;62320;51.520;6.818;2022-07-29T09:13:08;10.63;;;5.00;;
4527;SDS011;62320;51.520;6.818;2022-07-29T09:18:09;11.90;;;5.00;;
4527;SDS011;62320;51.520;6.818;2022-07-29T09:23:31;6.85;;;4.80;;
4527;SDS011;62320;51.520;6.818;2022-07-29T09:28:32;10.70;;;4.10;;
4527;SDS011;62320;51.520;6.818;2022-07-29T09:33:34;8.90;;;5.15;;
4527;SDS011;62320;51.520;6.818;2022-07-29T09:38:36;7.35;;;4.18;;
4527;SDS011;62320;51.520;6.818;2022-07-29T09:43:38;7.63;;;4.35;;
4527;SDS011;62320;51.520;6.818;2022-07-29T09:48:41;7.47;;;4.68;;
4527;SDS011;62320;51.520;6.818;2022-07-29T09:53:43;8.10;;;4.28;;
4527;SDS011;62320;51.520;6.818;2022-07-29T09:58:44;6.90;;;3.88;;
4527;SDS011;62320;51.520;6.818;2022-07-29T10:03:52;8.35;;;4.45;;
4527;SDS011;62320;51.520;6.818;2022-07-29T10:08:54;7.30;;;3.75;;
4527;SDS011;62320;51.520;6.818;2022-07-29T10:14:08;6.63;;;3.72;;
4527;SDS011;62320;51.520;6.818;2022-07-29T10:19:10;6.30;;;3.80;;
4527;SDS011;62320;51.520;6.818;2022-07-29T10:24:11;7.32;;;4.13;;
4527;SDS011;62320;51.520;6.818;2022-07-29T10:29:15;7.18;;;3.67;;
4527;SDS011;62320;51.520;6.818;2022-07-29T10:34:20;6.90;;;4.07;;
4527;SDS011;62320;51.520;6.818;2022-07-29T10:44:53;7.10;;;3.80;;
4527;SDS011;62320;51.520;6.818;2022-07-29T10:49:57;5.38;;;3.90;;
4527;SDS011;62320;51.520;6.818;2022-07-29T10:55:01;9.20;;;3.75;;
4527;SDS011;62320;51.520;6.818;2022-07-29T11:05:10;6.70;;;4.03;;
4527;SDS011;62320;51.520;6.818;2022-07-29T11:15:17;8.05;;;4.65;;
4527;SDS011;62320;51.520;6.818;2022-07-29T11:26:21;6.95;;;3.30;;
4527;SDS011;62320;51.520;6.818;2022-07-29T11:47:34;5.78;;;3.38;;
4527;SDS011;62320;51.520;6.818;2022-07-29T11:52:40;5.03;;;2.50;;
4527;SDS011;62320;51.520;6.818;2022-07-29T12:03:05;3.95;;;2.72;;
4527;SDS011;62320;51.520;6.818;2022-07-29T12:08:10;4.95;;;2.50;;
4527;SDS011;62320;51.520;6.818;2022-07-29T12:13:15;6.93;;;2.70;;
4527;SDS011;62320;51.520;6.818;2022-07-29T12:18:18;3.72;;;2.42;;
4527;SDS011;62320;51.520;6.818;2022-07-29T12:23:24;4.30;;;2.40;;
4527;SDS011;62320;51.520;6.818;2022-07-29T12:28:29;6.18;;;3.25;;
4527;SDS011;62320;51.520;6.818;2022-07-29T12:33:32;5.35;;;3.00;;
4527;SDS011;62320;51.520;6.818;2022-07-29T12:38:35;5.75;;;2.90;;
4527;SDS011;62320;51.520;6.818;2022-07-29T12:43:37;7.20;;;3.88;;
4527;SDS011;62320;51.520;6.818;2022-07-29T12:48:39;5.93;;;4.20;;
4527;SDS011;62320;51.520;6.818;2022-07-29T12:54:01;5.68;;;3.88;;
4527;SDS011;62320;51.520;6.818;2022-07-29T12:59:11;8.38;;;4.65;;
4527;SDS011;62320;51.520;6.818;2022-07-29T13:04:29;7.15;;;3.90;;
4527;SDS011;62320;51.520;6.818;2022-07-29T13:09:45;7.35;;;4.10;;
4527;SDS011;62320;51.520;6.818;2022-07-29T13:14:47;6.75;;;4.00;;
4527;SDS011;62320;51.520;6.818;2022-07-29T13:19:51;5.05;;;3.75;;
4527;SDS011;62320;51.520;6.818;2022-07-29T13:24:55;6.38;;;4.07;;
4527;SDS011;62320;51.520;6.818;2022-07-29T13:29:58;4.38;;;3.58;;
4527;SDS011;62320;51.520;6.818;2022-07-29T13:35:03;6.32;;;3.38;;
4527;SDS011;62320;51.520;6.818;2022-07-29T13:40:07;5.97;;;3.17;;
4527;SDS011;62320;51.520;6.818;2022-07-29T13:45:09;4.63;;;3.00;;
4527;SDS011;62320;51.520;6.818;2022-07-29T13:50:11;6.47;;;3.38;;
4527;SDS011;62320;51.520;6.818;2022-07-29T13:55:13;9.55;;;3.33;;
4527;SDS011;62320;51.520;6.818;2022-07-29T14:00:14;5.13;;;3.40;;
4527;SDS011;62320;51.520;6.818;2022-07-29T14:05:17;5.82;;;3.13;;
4527;SDS011;62320;51.520;6.818;2022-07-29T14:10:18;7.88;;;3.00;;
4527;SDS011;62320;51.520;6.818;2022-07-29T14:15:20;4.68;;;2.92;;
4527;SDS011;62320;51.520;6.818;2022-07-29T14:20:22;4.90;;;2.80;;
4527;SDS011;62320;51.520;6.818;2022-07-29T14:25:23;5.72;;;2.97;;
4527;SDS011;62320;51.520;6.818;2022-07-29T14:30:25;5.57;;;2.63;;
4527;SDS011;62320;51.520;6.818;2022-07-29T14:35:26;8.35;;;3.17;;
4527;SDS011;62320;51.520;6.818;2022-07-29T14:40:28;5.63;;;3.17;;
4527;SDS011;62320;51.520;6.818;2022-07-29T14:45:29;6.20;;;3.40;;
4527;SDS011;62320;51.520;6.818;2022-07-29T14:50:31;5.60;;;3.13;;
4527;SDS011;62320;51.520;6.818;2022-07-29T14:55:32;8.48;;;3.50;;
4527;SDS011;62320;51.520;6.818;2022-07-29T15:00:34;5.85;;;3.20;;
4527;SDS011;62320;51.520;6.818;2022-07-29T15:05:37;5.07;;;2.80;;
4527;SDS011;62320;51.520;6.818;2022-07-29T15:10:39;5.10;;;2.88;;
4527;SDS011;62320;51.520;6.818;2022-07-29T15:15:41;4.63;;;2.97;;
4527;SDS011;62320;51.520;6.818;2022-07-29T15:20:42;8.23;;;2.80;;
4527;SDS011;62320;51.520;6.818;2022-07-29T15:25:47;6.45;;;2.90;;
4527;SDS011;62320;51.520;6.818;2022-07-29T15:30:48;5.40;;;2.67;;
4527;SDS011;62320;51.520;6.818;2022-07-29T15:35:49;4.30;;;2.53;;
4527;SDS011;62320;51.520;6.818;2022-07-29T15:40:51;9.80;;;3.08;;
4527;SDS011;62320;51.520;6.818;2022-07-29T15:45:52;5.40;;;2.95;;
4527;SDS011;62320;51.520;6.818;2022-07-29T15:51:13;3.30;;;2.05;;
4527;SDS011;62320;51.520;6.818;2022-07-29T15:56:14;4.15;;;2.60;;
4527;SDS011;62320;51.520;6.818;2022-07-29T16:01:16;7.30;;;2.70;;
4527;SDS011;62320;51.520;6.818;2022-07-29T16:06:17;6.22;;;2.95;;
4527;SDS011;62320;51.520;6.818;2022-07-29T16:11:19;4.68;;;2.65;;
4527;SDS011;62320;51.520;6.818;2022-07-29T16:16:21;5.35;;;2.80;;
4527;SDS011;62320;51.520;6.818;2022-07-29T16:21:22;5.57;;;2.50;;
4527;SDS011;62320;51.520;6.818;2022-07-29T16:26:24;4.55;;;3.00;;
4527;SDS011;62320;51.520;6.818;2022-07-29T16:31:25;6.22;;;3.20;;
4527;SDS011;62320;51.520;6.818;2022-07-29T16:36:27;5.05;;;3.03;;
4527;SDS011;62320;51.520;6.818;2022-07-29T16:41:28;5.97;;;3.05;;
4527;SDS011;62320;51.520;6.818;2022-07-29T16:46:30;7.82;;;3.67;;
4527;SDS011;62320;51.520;6.818;2022-07-29T16:51:31;10.18;;;5.43;;
4527;SDS011;62320;51.520;6.818;2022-07-29T16:56:33;5.45;;;3.67;;
4527;SDS011;62320;51.520;6.818;2022-07-29T17:01:34;6.15;;;3.50;;
4527;SDS011;62320;51.520;6.818;2022-07-29T17:06:37;7.63;;;3.00;;
4527;SDS011;62320;51.520;6.818;2022-07-29T17:11:41;5.05;;;2.97;;
4527;SDS011;62320;51.520;6.818;2022-07-29T17:16:55;6.60;;;3.20;;
4527;SDS011;62320;51.520;6.818;2022-07-29T17:22:03;4.90;;;3.15;;
4527;SDS011;62320;51.520;6.818;2022-07-29T17:27:15;6.57;;;3.20;;
4527;SDS011;62320;51.520;6.818;2022-07-29T17:32:17;6.88;;;3.05;;
4527;SDS011;62320;51.520;6.818;2022-07-29T17:37:19;4.80;;;2.60;;
4527;SDS011;62320;51.520;6.818;2022-07-29T17:42:20;5.03;;;2.58;;
4527;SDS011;62320;51.520;6.818;2022-07-29T17:47:21;4.70;;;2.60;;
4527;SDS011;62320;51.520;6.818;2022-07-29T17:52:23;4.72;;;2.35;;
4527;SDS011;62320;51.520;6.818;2022-07-29T17:57:24;6.65;;;2.58;;
4527;SDS011;62320;51.520;6.818;2022-07-29T18:02:26;3.92;;;2.38;;
4527;SDS011;62320;51.520;6.818;2022-07-29T18:07:28;4.40;;;2.33;;
4527;SDS011;62320;51.520;6.818;2022-07-29T18:12:30;2.78;;;2.20;;
4527;SDS011;62320;51.520;6.818;2022-07-29T18:17:31;4.65;;;2.40;;
4527;SDS011;62320;51.520;6.818;2022-07-29T18:22:53;4.47;;;2.30;;
4527;SDS011;62320;51.520;6.818;2022-07-29T18:27:54;4.38;;;2.22;;
4527;SDS011;62320;51.520;6.818;2022-07-29T18:33:00;5.10;;;2.85;;
4527;SDS011;62320;51.520;6.818;2022-07-29T18:38:22;4.57;;;2.30;;
4527;SDS011;62320;51.520;6.818;2022-07-29T18:43:23;6.50;;;2.70;;
4527;SDS011;62320;51.520;6.818;2022-07-29T18:48:24;6.05;;;3.13;;
4527;SDS011;62320;51.520;6.818;2022-07-29T18:53:26;6.97;;;2.80;;
4527;SDS011;62320;51.520;6.818;2022-07-29T18:58:27;4.68;;;2.90;;
4527;SDS011;62320;51.520;6.818;2022-07-29T19:03:29;4.03;;;2.90;;
4527;SDS011;62320;51.520;6.818;2022-07-29T19:08:30;4.90;;;2.95;;
4527;SDS011;62320;51.520;6.818;2022-07-29T19:13:32;5.65;;;3.13;;
4527;SDS011;62320;51.520;6.818;2022-07-29T19:18:33;4.88;;;2.60;;
4527;SDS011;62320;51.520;6.818;2022-07-29T19:23:35;4.55;;;2.67;;
4527;SDS011;62320;51.520;6.818;2022-07-29T19:28:56;4.28;;;2.67;;
4527;SDS011;62320;51.520;6.818;2022-07-29T19:33:58;8.05;;;3.63;;
4527;SDS011;62320;51.520;6.818;2022-07-29T19:38:59;7.05;;;3.40;;
4527;SDS011;62320;51.520;6.818;2022-07-29T19:44:01;6.07;;;3.42;;
4527;SDS011;62320;51.520;6.818;2022-07-29T19:49:03;6.47;;;3.17;;
4527;SDS011;62320;51.520;6.818;2022-07-29T19:54:06;6.43;;;3.55;;
4527;SDS011;62320;51.520;6.818;2022-07-29T19:59:09;4.38;;;3.13;;
4527;SDS011;62320;51.520;6.818;2022-07-29T20:04:12;4.10;;;3.05;;
4527;SDS011;62320;51.520;6.818;2022-07-29T20:09:13;6.28;;;3.20;;
4527;SDS011;62320;51.520;6.818;2022-07-29T20:14:20;4.10;;;3.20;;
4527;SDS011;62320;51.520;6.818;2022-07-29T20:19:22;5.38;;;3.25;;
4527;SDS011;62320;51.520;6.818;2022-07-29T20:24:24;5.55;;;3.38;;
4527;SDS011;62320;51.520;6.818;2022-07-29T20:29:25;14.82;;;8.68;;
4527;SDS011;62320;51.520;6.818;2022-07-29T20:34:27;21.40;;;15.27;;
4527;SDS011;62320;51.520;6.818;2022-07-29T20:39:28;22.55;;;15.68;;
4527;SDS011;62320;51.520;6.818;2022-07-29T20:44:30;17.25;;;13.05;;
4527;SDS011;62320;51.520;6.818;2022-07-29T20:49:32;19.90;;;14.20;;
4527;SDS011;62320;51.520;6.818;2022-07-29T20:54:33;14.75;;;10.40;;
4527;SDS011;62320;51.520;6.818;2022-07-29T20:59:35;11.25;;;9.43;;
4527;SDS011;62320;51.520;6.818;2022-07-29T21:04:36;11.95;;;8.23;;
4527;SDS011;62320;51.520;6.818;2022-07-29T21:09:38;10.05;;;6.78;;
4527;SDS011;62320;51.520;6.818;2022-07-29T21:14:39;11.45;;;5.35;;
4527;SDS011;62320;51.520;6.818;2022-07-29T21:19:41;9.05;;;5.95;;
4527;SDS011;62320;51.520;6.818;2022-07-29T21:24:43;7.93;;;5.65;;
4527;SDS011;62320;51.520;6.818;2022-07-29T21:29:45;10.18;;;5.30;;
4527;SDS011;62320;51.520;6.818;2022-07-29T21:34:46;8.27;;;5.10;;
4527;SDS011;62320;51.520;6.818;2022-07-29T21:39:48;6.22;;;5.10;;
4527;SDS011;62320;51.520;6.818;2022-07-29T21:44:49;9.85;;;5.15;;
4527;SDS011;62320;51.520;6.818;2022-07-29T21:49:51;6.47;;;5.30;;
4527;SDS011;62320;51.520;6.818;2022-07-29T21:54:53;5.82;;;5.05;;
4527;SDS011;62320;51.520;6.818;2022-07-29T21:59:54;9.27;;;5.72;;
4527;SDS011;62320;51.520;6.818;2022-07-29T22:05:02;8.95;;;5.32;;
4527;SDS011;62320;51.520;6.818;2022-07-29T22:10:04;10.32;;;5.82;;
4527;SDS011;62320;51.520;6.818;2022-07-29T22:15:06;7.70;;;5.30;;
4527;SDS011;62320;51.520;6.818;2022-07-29T22:20:08;9.73;;;5.25;;
4527;SDS011;62320;51.520;6.818;2022-07-29T22:25:10;7.40;;;5.68;;
4527;SDS011;62320;51.520;6.818;2022-07-29T22:30:11;8.18;;;5.28;;
4527;SDS011;62320;51.520;6.818;2022-07-29T22:35:13;8.85;;;5.22;;
4527;SDS011;62320;51.520;6.818;2022-07-29T22:40:15;6.97;;;5.05;;
4527;SDS011;62320;51.520;6.818;2022-07-29T22:45:17;9.45;;;5.25;;
4527;SDS011;62320;51.520;6.818;2022-07-29T22:50:18;12.52;;;6.40;;
4527;SDS011;62320;51.520;6.818;2022-07-29T22:55:20;8.23;;;5.72;;
4527;SDS011;62320;51.520;6.818;2022-07-29T23:00:21;8.32;;;6.15;;
4527;SDS011;62320;51.520;6.818;2022-07-29T23:05:23;8.02;;;5.55;;
4527;SDS011;62320;51.520;6.818;2022-07-29T23:10:24;9.18;;;5.20;;
4527;SDS011;62320;51.520;6.818;2022-07-29T23:15:25;8.73;;;5.75;;
4527;SDS011;62320;51.520;6.818;2022-07-29T23:20:27;8.43;;;5.60;;
4527;SDS011;62320;51.520;6.818;2022-07-29T23:25:29;7.70;;;5.38;;
4527;SDS011;62320;51.520;6.818;2022-07-29T23:30:31;8.60;;;5.75;;
4527;SDS011;62320;51.520;6.818;2022-07-29T23:35:32;9.07;;;5.82;;
4527;SDS011;62320;51.520;6.818;2022-07-29T23:40:34;5.13;;;2.67;;
4527;SDS011;62320;51.520;6.818;2022-07-29T23:45:35;7.97;;;5.07;;
4527;SDS011;62320;51.520;6.818;2022-07-29T23:50:44;7.88;;;5.30;;
4527;SDS011;62320;51.520;6.818;2022-07-29T23:55:45;10.57;;;5.95;;
